Time;durP1;ratioP1;P1;durP2;ratioP2;P2;SDS_P1;SDS_P2;PMS_P1;PMS_P2;Temp;Humidity;BMP_temperature;BMP_pressure;BME280_temperature;BME280_humidity;BME280_pressure;Samples;Min_cycle;Max_cycle;Signal;HPM_P1;HPM_P2
2023/10/15 00:01:57;;;;;;;0.00;0.00;;;;;;;8.31;57.87;102053.19;7356431;19;20010;-62
2023/10/15 00:04:22;;;;;;;0.00;0.00;;;;;;;8.30;57.94;102054.06;7357931;19;20014;-61
2023/10/15 00:06:48;;;;;;;0.00;0.00;;;;;;;8.29;58.06;102067.94;7359290;19;20010;-61
2023/10/15 00:09:14;;;;;;;0.00;0.00;;;;;;;8.24;58.16;102067.03;7358340;19;20440;-63
2023/10/15 00:11:40;;;;;;;0.00;0.00;;;;;;;8.23;58.17;102073.09;7354233;19;20483;-61
2023/10/15 00:14:06;;;;;;;0.00;0.00;;;;;;;8.19;58.10;102066.09;7356595;19;20011;-61
2023/10/15 00:16:32;;;;;;;0.00;0.00;;;;;;;8.09;58.34;102048.66;7354907;19;20010;-61
2023/10/15 00:18:58;;;;;;;0.00;0.00;;;;;;;8.14;58.20;102067.78;7354923;19;20080;-61
2023/10/15 00:21:25;;;;;;;0.10;0.10;;;;;;;8.07;58.30;102061.66;7355877;19;20010;-62
2023/10/15 00:23:52;;;;;;;0.00;0.00;;;;;;;8.02;58.03;102053.81;7350204;19;20550;-61
2023/10/15 00:26:20;;;;;;;0.00;0.00;;;;;;;7.92;58.06;102041.59;7355875;19;20718;-61
2023/10/15 00:28:45;;;;;;;0.00;0.00;;;;;;;7.99;58.49;102053.78;7357890;19;20742;-61
2023/10/15 00:31:14;;;;;;;0.10;0.10;;;;;;;7.86;58.42;102044.13;7353629;19;20035;-61
2023/10/15 00:33:42;;;;;;;0.00;0.00;;;;;;;7.58;58.45;102003.09;7361463;19;20089;-61
2023/10/15 00:36:13;;;;;;;0.10;0.10;;;;;;;7.88;58.31;102071.00;7363714;19;20055;-61
2023/10/15 00:38:45;;;;;;;0.00;0.00;;;;;;;7.71;58.29;102046.56;7354686;19;20027;-61
2023/10/15 00:41:13;;;;;;;0.10;0.10;;;;;;;7.88;58.34;102085.75;7349760;19;20042;-61
2023/10/15 00:43:59;;;;;;;0.00;0.00;;;;;;;7.85;57.97;102078.78;7356821;19;20006;-61
2023/10/15 00:46:27;;;;;;;0.00;0.00;;;;;;;7.82;58.38;102081.34;7355791;19;20018;-61
2023/10/15 00:48:57;;;;;;;0.00;0.00;;;;;;;7.79;58.42;102078.72;7355631;19;20021;-60
2023/10/15 00:51:23;;;;;;;0.00;0.00;;;;;;;7.75;58.77;102084.72;7364203;19;20021;-61
2023/10/15 00:53:58;;;;;;;0.10;0.10;;;;;;;7.62;58.83;102062.06;7357859;19;20474;-62
2023/10/15 00:56:33;;;;;;;0.10;0.10;;;;;;;7.70;58.69;102086.41;7355193;19;20025;-62
2023/10/15 01:01:38;;;;;;;0.00;0.00;;;;;;;7.60;58.72;102094.94;7358783;19;20019;-62
2023/10/15 01:04:06;;;;;;;0.00;0.00;;;;;;;7.62;58.62;102098.47;7354017;19;20002;-61
2023/10/15 01:06:37;;;;;;;0.00;0.00;;;;;;;7.52;58.75;102082.75;7355659;19;20021;-60
2023/10/15 01:09:18;;;;;;;0.00;0.00;;;;;;;7.53;58.28;102094.88;7327439;19;20019;-61
2023/10/15 01:11:44;;;;;;;0.00;0.00;;;;;;;7.40;59.01;102082.63;7356500;19;20025;-61
2023/10/15 01:14:10;;;;;;;0.03;0.03;;;;;;;7.50;58.95;102100.06;7345557;19;20029;-60
2023/10/15 01:16:38;;;;;;;0.00;0.00;;;;;;;7.38;59.17;102091.22;7356959;19;20581;-61
2023/10/15 01:19:18;;;;;;;0.00;0.00;;;;;;;7.45;58.35;102106.94;7353855;19;20519;-61
2023/10/15 01:21:58;;;;;;;0.10;0.10;;;;;;;7.42;58.99;102103.41;7359216;19;20014;-61
2023/10/15 01:24:27;;;;;;;0.10;0.10;;;;;;;7.37;58.68;102098.16;7347406;19;20011;-61
2023/10/15 01:27:00;;;;;;;0.10;0.10;;;;;;;7.20;59.13;102068.50;7354799;19;20018;-61
2023/10/15 01:29:28;;;;;;;0.10;0.10;;;;;;;7.35;59.18;102097.28;7355211;19;20593;-61
2023/10/15 01:32:03;;;;;;;0.00;0.00;;;;;;;7.29;59.28;102097.16;7357252;19;20109;-61
2023/10/15 01:34:37;;;;;;;0.10;0.10;;;;;;;7.30;59.52;102106.72;7348815;19;20820;-62
2023/10/15 01:39:49;;;;;;;0.00;0.00;;;;;;;7.13;59.36;102097.81;7354508;19;20762;-62
2023/10/15 01:45:17;;;;;;;0.00;0.00;;;;;;;7.21;59.16;102111.81;7356523;19;20014;-62
2023/10/15 01:50:33;;;;;;;0.05;0.05;;;;;;;7.15;59.34;102109.13;7358840;19;20011;-61
2023/10/15 01:53:01;;;;;;;0.00;0.00;;;;;;;7.09;59.40;102103.81;7354557;19;20044;-61
2023/10/15 01:55:29;;;;;;;0.03;0.03;;;;;;;6.68;59.50;102044.38;7355229;19;20467;-62
2023/10/15 01:57:54;;;;;;;;;;;;;;;7.08;57.97;102115.94;7354878;19;20007;-61
2023/10/15 02:03:03;;;;;;;0.00;0.00;;;;;;;6.94;59.90;102110.53;7352919;19;20018;-61
2023/10/15 02:05:42;;;;;;;0.00;0.00;;;;;;;6.95;59.36;102116.63;7354449;19;20096;-61
2023/10/15 02:08:23;;;;;;;0.00;0.00;;;;;;;6.87;59.53;102108.72;7359012;19;20495;-60
2023/10/15 02:10:49;;;;;;;0.00;0.00;;;;;;;6.92;59.68;102114.84;7360188;19;20051;-61
2023/10/15 02:13:20;;;;;;;0.10;0.10;;;;;;;6.85;59.67;102113.00;7361596;19;20097;-61
2023/10/15 02:15:49;;;;;;;0.00;0.00;;;;;;;6.87;59.35;102116.50;7364040;19;20632;-61
2023/10/15 02:18:17;;;;;;;0.00;0.00;;;;;;;6.84;59.88;102121.63;7362863;19;20647;-60
2023/10/15 02:23:20;;;;;;;0.00;0.00;;;;;;;6.82;60.18;102119.88;7362007;19;20003;-61
2023/10/15 02:25:47;;;;;;;0.00;0.00;;;;;;;6.78;60.06;102120.66;7363667;19;20481;-61
2023/10/15 02:28:17;;;;;;;0.00;0.00;;;;;;;6.79;60.00;102127.59;7358169;19;20629;-61
2023/10/15 02:30:46;;;;;;;0.10;0.10;;;;;;;6.66;60.22;102110.97;7360459;19;20047;-60
2023/10/15 02:33:16;;;;;;;0.03;0.03;;;;;;;6.74;60.19;102122.34;7361343;19;19995;-62
2023/10/15 02:35:45;;;;;;;0.00;0.00;;;;;;;6.71;60.22;102130.09;7363765;19;20014;-61
2023/10/15 02:38:12;;;;;;;0.05;0.05;;;;;;;6.63;60.14;102110.91;7353818;19;20003;-61
2023/10/15 02:40:57;;;;;;;0.00;0.00;;;;;;;6.47;59.96;102087.31;7356782;19;20014;-62
2023/10/15 02:43:29;;;;;;;0.00;0.00;;;;;;;6.65;60.15;102125.69;7354385;19;20364;-61
2023/10/15 02:46:00;;;;;;;0.00;0.00;;;;;;;6.58;60.01;102120.34;7357967;19;20017;-61
2023/10/15 02:48:27;;;;;;;0.10;0.10;;;;;;;6.61;60.26;102134.25;7356339;19;20014;-61
2023/10/15 02:51:08;;;;;;;0.00;0.00;;;;;;;6.54;60.26;102121.13;7345408;19;20021;-61
2023/10/15 02:53:35;;;;;;;0.10;0.10;;;;;;;6.57;60.44;102126.41;7328708;19;20137;-61
2023/10/15 02:56:10;;;;;;;0.00;0.00;;;;;;;6.48;60.22;102121.91;7343833;19;21220;-60
2023/10/15 02:58:39;;;;;;;0.00;0.00;;;;;;;6.53;60.42;102134.97;7359719;19;20038;-60
2023/10/15 03:01:20;;;;;;;0.00;0.00;;;;;;;6.50;60.28;102141.88;7360127;19;20017;-60
2023/10/15 03:03:49;;;;;;;0.00;0.00;;;;;;;6.34;59.82;102113.03;7353629;19;20567;-61
2023/10/15 03:06:24;;;;;;;0.00;0.00;;;;;;;6.39;60.51;102130.44;7363751;19;20023;-61
2023/10/15 03:08:50;;;;;;;0.00;0.00;;;;;;;6.35;60.29;102126.03;7360205;19;19998;-61
2023/10/15 03:11:19;;;;;;;0.10;0.10;;;;;;;6.42;60.62;102140.84;7359517;19;20066;-61
2023/10/15 03:13:50;;;;;;;0.10;0.10;;;;;;;6.40;60.63;102139.97;7357247;19;20014;-61
2023/10/15 03:16:22;;;;;;;0.10;0.10;;;;;;;6.38;60.43;102144.22;7357234;19;20061;-61
2023/10/15 03:18:48;;;;;;;0.00;0.00;;;;;;;6.33;60.13;102138.09;7326706;19;20006;-61
2023/10/15 03:21:30;;;;;;;0.00;0.00;;;;;;;6.36;60.01;102148.53;7359870;19;20765;-62
2023/10/15 03:23:56;;;;;;;0.05;0.05;;;;;;;6.31;60.63;102150.16;7359213;19;20031;-61
2023/10/15 03:26:23;;;;;;;0.00;0.00;;;;;;;6.30;59.81;102145.84;7351383;19;20058;-61
2023/10/15 03:28:52;;;;;;;0.00;0.00;;;;;;;6.29;60.25;102156.19;7357911;19;20006;-61
2023/10/15 03:31:23;;;;;;;0.03;0.03;;;;;;;6.29;60.40;102143.22;7356097;19;20014;-60
2023/10/15 03:36:44;;;;;;;0.00;0.00;;;;;;;6.23;60.89;102147.47;7357194;19;20078;-61
2023/10/15 03:39:24;;;;;;;0.00;0.00;;;;;;;6.08;60.94;102126.38;7357872;19;20014;-60
2023/10/15 03:42:09;;;;;;;0.00;0.00;;;;;;;6.17;60.82;102151.63;7359001;19;20010;-61
2023/10/15 03:44:46;;;;;;;0.00;0.00;;;;;;;6.15;60.25;102150.75;7358468;19;20024;-61
2023/10/15 03:47:13;;;;;;;0.00;0.00;;;;;;;6.05;60.52;102133.25;7352135;19;20011;-61
2023/10/15 03:49:38;;;;;;;0.00;0.00;;;;;;;6.09;60.35;102142.84;7353541;19;20878;-61
2023/10/15 03:52:08;;;;;;;0.10;0.10;;;;;;;5.90;60.71;102111.34;7355603;19;20006;-60
2023/10/15 03:54:37;;;;;;;0.05;0.05;;;;;;;6.07;60.14;102144.53;7359682;19;20031;-61
2023/10/15 03:57:02;;;;;;;0.10;0.10;;;;;;;6.03;60.72;102143.59;7364029;19;20057;-61
2023/10/15 03:59:28;;;;;;;0.00;0.00;;;;;;;6.02;61.08;102148.75;7362732;19;20427;-62
2023/10/15 04:01:56;;;;;;;0.00;0.00;;;;;;;5.97;60.85;102149.53;7361190;19;20696;-61
2023/10/15 04:04:22;;;;;;;0.00;0.00;;;;;;;5.92;60.58;102145.97;7359861;19;20497;-60
2023/10/15 04:07:03;;;;;;;0.00;0.00;;;;;;;5.82;60.48;102133.63;7360342;19;20043;-61
2023/10/15 04:09:33;;;;;;;0.00;0.00;;;;;;;5.91;59.93;102149.41;7358659;19;20437;-61
2023/10/15 04:11:59;;;;;;;0.00;0.00;;;;;;;5.81;60.63;102137.09;7359210;19;20011;-61
2023/10/15 04:14:32;;;;;;;0.00;0.00;;;;;;;5.71;60.70;102124.78;7357662;19;20598;-62
2023/10/15 04:16:58;;;;;;;0.10;0.10;;;;;;;5.90;60.85;102158.00;7362092;19;20962;-61
2023/10/15 04:19:29;;;;;;;0.00;0.00;;;;;;;5.84;60.92;102155.31;7359127;19;20014;-62
2023/10/15 04:22:13;;;;;;;0.08;0.08;;;;;;;5.83;61.08;102155.25;7363191;19;20027;-60
2023/10/15 04:24:42;;;;;;;0.03;0.03;;;;;;;5.82;61.11;102159.56;7364668;19;20031;-61
2023/10/15 04:27:14;;;;;;;0.10;0.10;;;;;;;5.82;60.97;102163.88;7360488;19;20521;-61
2023/10/15 04:29:47;;;;;;;0.00;0.00;;;;;;;5.80;61.13;102161.25;7359366;19;20038;-61
2023/10/15 04:32:17;;;;;;;0.03;0.03;;;;;;;5.73;61.37;102146.44;7358209;19;20018;-61
2023/10/15 04:34:44;;;;;;;0.00;0.00;;;;;;;5.76;60.93;102169.81;7354031;19;20853;-61
2023/10/15 04:37:16;;;;;;;0.10;0.10;;;;;;;5.67;61.10;102138.53;7358333;19;20431;-61
2023/10/15 04:39:55;;;;;;;0.00;0.00;;;;;;;5.76;61.31;102168.94;7356475;19;20025;-61
2023/10/15 04:42:21;;;;;;;0.03;0.03;;;;;;;5.74;61.60;102168.91;7362939;19;20033;-61
2023/10/15 04:44:49;;;;;;;0.00;0.00;;;;;;;5.68;61.27;102161.91;7358523;19;20038;-61
2023/10/15 04:47:25;;;;;;;0.00;0.00;;;;;;;5.67;61.39;102164.44;7366528;19;20017;-60
2023/10/15 04:49:56;;;;;;;0.00;0.00;;;;;;;5.51;61.49;102136.47;7359729;19;20061;-61
2023/10/15 04:52:22;;;;;;;0.00;0.00;;;;;;;5.62;61.46;102155.69;7361554;19;20011;-61
2023/10/15 04:54:47;;;;;;;0.00;0.00;;;;;;;5.63;61.36;102157.47;7359860;19;20801;-60
2023/10/15 04:57:13;;;;;;;0.10;0.10;;;;;;;5.63;61.25;102158.34;7358321;19;20035;-60
2023/10/15 04:59:38;;;;;;;0.10;0.10;;;;;;;5.43;61.38;102134.59;7358716;19;20010;-62
2023/10/15 05:02:04;;;;;;;0.00;0.00;;;;;;;5.46;61.64;102141.53;7359933;19;20070;-61
2023/10/15 05:04:29;;;;;;;0.00;0.00;;;;;;;5.55;61.80;102152.09;7359735;19;20322;-60
2023/10/15 05:06:55;;;;;;;0.10;0.10;;;;;;;5.50;61.14;102150.25;7355699;19;20428;-60
2023/10/15 05:09:21;;;;;;;0.00;0.00;;;;;;;5.41;61.24;102138.84;7358379;19;20015;-61
2023/10/15 05:11:53;;;;;;;0.10;0.10;;;;;;;4.77;61.23;102056.31;7365823;19;20015;-61
2023/10/15 05:14:18;;;;;;;0.10;0.10;;;;;;;5.37;61.74;102139.66;7359351;19;20038;-61
2023/10/15 05:16:47;;;;;;;0.00;0.00;;;;;;;5.43;60.74;102149.25;7360078;19;20661;-61
2023/10/15 05:19:16;;;;;;;0.10;0.10;;;;;;;5.46;61.43;102163.13;7360990;19;20018;-61
2023/10/15 05:21:42;;;;;;;0.00;0.00;;;;;;;5.05;61.78;102094.03;7363727;19;20017;-61
2023/10/15 05:24:08;;;;;;;0.00;0.00;;;;;;;5.22;61.61;102139.31;7359618;19;20503;-60
2023/10/15 05:26:33;;;;;;;0.00;0.00;;;;;;;5.38;61.37;102177.66;7358280;19;20002;-61
2023/10/15 05:28:59;;;;;;;0.10;0.10;;;;;;;5.34;61.31;102175.84;7354748;19;20021;-61
2023/10/15 05:31:24;;;;;;;0.00;0.00;;;;;;;5.36;61.98;102181.91;7359194;19;20010;-60
2023/10/15 05:33:50;;;;;;;0.00;0.00;;;;;;;5.20;61.64;102152.19;7357022;19;20082;-60
2023/10/15 05:36:15;;;;;;;0.00;0.00;;;;;;;5.32;62.03;102172.34;7357662;19;20023;-61
2023/10/15 05:38:41;;;;;;;0.00;0.00;;;;;;;5.15;61.94;102142.59;7358160;19;20023;-61
2023/10/15 05:41:06;;;;;;;0.00;0.00;;;;;;;5.16;61.62;102152.97;7357429;19;20011;-60
2023/10/15 05:43:32;;;;;;;0.10;0.10;;;;;;;5.17;61.93;102148.66;7362240;19;20010;-61
2023/10/15 05:45:57;;;;;;;0.00;0.00;;;;;;;5.27;61.85;102167.88;7363799;19;20457;-60
2023/10/15 05:48:23;;;;;;;0.10;0.10;;;;;;;5.17;61.81;102159.91;7362077;19;20678;-61
2023/10/15 05:50:49;;;;;;;0.10;0.10;;;;;;;5.22;61.90;102154.84;7370681;19;20042;-61
2023/10/15 05:53:16;;;;;;;0.00;0.00;;;;;;;5.20;61.99;102152.19;7369716;19;20014;-60
2023/10/15 05:55:41;;;;;;;0.00;0.00;;;;;;;5.17;61.82;102154.75;7368302;19;20905;-61
2023/10/15 05:58:08;;;;;;;0.00;0.00;;;;;;;5.18;61.94;102153.03;7360264;19;20011;-61
2023/10/15 06:00:39;;;;;;;0.00;0.00;;;;;;;5.17;61.90;102152.16;7366665;19;20518;-61
2023/10/15 06:03:05;;;;;;;0.00;0.00;;;;;;;5.08;61.98;102135.53;7368960;19;20027;-61
2023/10/15 06:05:31;;;;;;;0.10;0.10;;;;;;;5.12;62.11;102153.75;7366266;19;20011;-60
2023/10/15 06:07:56;;;;;;;0.00;0.00;;;;;;;4.83;61.99;102114.25;7366658;19;20014;-60
2023/10/15 06:10:22;;;;;;;0.10;0.10;;;;;;;5.09;61.86;102158.00;7364830;19;20447;-61
2023/10/15 06:12:47;;;;;;;0.00;0.00;;;;;;;5.04;61.80;102144.94;7363841;19;20014;-60
2023/10/15 06:15:15;;;;;;;0.10;0.10;;;;;;;5.00;61.49;102144.81;7369229;19;20014;-61
2023/10/15 06:17:40;;;;;;;0.00;0.00;;;;;;;5.03;62.16;102158.72;7375273;19;20821;-61
2023/10/15 06:20:12;;;;;;;0.10;0.10;;;;;;;4.92;61.90;102145.53;7368265;19;20027;-61
2023/10/15 06:22:46;;;;;;;0.00;0.00;;;;;;;5.05;61.57;102172.56;7330957;19;20010;-61
2023/10/15 06:25:13;;;;;;;0.00;0.00;;;;;;;5.03;62.25;102178.56;7367967;19;20389;-61
2023/10/15 06:27:39;;;;;;;0.10;0.10;;;;;;;4.87;61.86;102162.66;7368768;19;20531;-60
2023/10/15 06:30:14;;;;;;;0.00;0.00;;;;;;;4.99;61.96;102176.72;7366759;19;20015;-60
2023/10/15 06:32:40;;;;;;;0.00;0.00;;;;;;;4.90;61.96;102167.91;7370077;19;20375;-60
2023/10/15 06:35:06;;;;;;;0.00;0.00;;;;;;;4.89;62.52;102166.16;7375972;19;20010;-61
2023/10/15 06:37:32;;;;;;;0.03;0.03;;;;;;;4.88;62.42;102174.75;7361927;19;20025;-61
2023/10/15 06:39:58;;;;;;;0.00;0.00;;;;;;;4.86;62.05;102170.38;7366591;19;20014;-60
2023/10/15 06:42:23;;;;;;;0.00;0.00;;;;;;;4.89;62.06;102176.50;7368081;19;20434;-61
2023/10/15 06:44:48;;;;;;;0.00;0.00;;;;;;;4.82;62.34;102168.56;7364212;19;19999;-61
2023/10/15 06:47:14;;;;;;;0.00;0.00;;;;;;;4.78;62.34;102167.63;7368929;19;20044;-61
2023/10/15 06:49:39;;;;;;;0.10;0.10;;;;;;;4.67;62.21;102149.25;7372116;19;20003;-61
2023/10/15 06:52:05;;;;;;;0.00;0.00;;;;;;;4.72;62.04;102167.47;7371502;19;20025;-61
2023/10/15 06:54:31;;;;;;;0.10;0.10;;;;;;;4.72;62.02;102177.81;7364084;19;20007;-61
2023/10/15 06:56:57;;;;;;;0.00;0.00;;;;;;;4.77;62.16;102191.75;7361991;19;20033;-61
2023/10/15 06:59:22;;;;;;;0.10;0.10;;;;;;;4.63;62.40;102168.09;7365478;19;20003;-60
2023/10/15 07:01:47;;;;;;;0.10;0.10;;;;;;;4.62;62.07;102168.94;7364319;19;20042;-59
2023/10/15 07:04:13;;;;;;;0.00;0.00;;;;;;;4.78;62.20;102209.03;7363871;19;20006;-61
2023/10/15 07:06:39;;;;;;;0.00;0.00;;;;;;;4.77;61.93;102207.28;7365719;19;20026;-60
2023/10/15 07:09:06;;;;;;;0.00;0.00;;;;;;;4.73;62.27;102199.38;7364778;19;20014;-61
2023/10/15 07:11:31;;;;;;;0.00;0.00;;;;;;;4.57;62.48;102169.66;7367663;19;20019;-60
2023/10/15 07:13:56;;;;;;;0.00;0.00;;;;;;;4.31;62.89;102127.59;7359230;19;20471;-61
2023/10/15 07:16:22;;;;;;;0.00;0.00;;;;;;;4.75;62.55;102214.09;7365595;19;20022;-61
2023/10/15 07:18:48;;;;;;;0.00;0.00;;;;;;;4.71;62.75;102207.09;7363377;19;20007;-61
2023/10/15 07:21:13;;;;;;;0.10;0.10;;;;;;;4.42;62.92;102152.91;7362731;19;20010;-60
2023/10/15 07:23:39;;;;;;;0.10;0.10;;;;;;;4.64;62.60;102176.75;7364035;19;20527;-61
2023/10/15 07:26:04;;;;;;;0.10;0.10;;;;;;;4.72;62.77;102193.34;7366443;19;20013;-60
2023/10/15 07:28:30;;;;;;;0.00;0.00;;;;;;;4.66;62.76;102188.00;7358602;19;20018;-60
2023/10/15 07:30:55;;;;;;;0.00;0.00;;;;;;;4.59;62.53;102186.09;7365486;19;20006;-61
2023/10/15 07:33:21;;;;;;;0.00;0.00;;;;;;;4.71;62.65;102201.91;7360716;19;20006;-61
2023/10/15 07:35:48;;;;;;;0.00;0.00;;;;;;;4.78;62.82;102214.19;7362658;19;20019;-61
2023/10/15 07:38:14;;;;;;;0.00;0.00;;;;;;;4.76;62.75;102204.63;7364814;19;20082;-62
2023/10/15 07:40:40;;;;;;;0.00;0.00;;;;;;;4.81;62.58;102208.19;7363596;19;20010;-61
2023/10/15 07:43:08;;;;;;;0.00;0.00;;;;;;;4.75;62.58;102190.81;7361562;19;20447;-62
2023/10/15 07:45:34;;;;;;;0.00;0.00;;;;;;;4.80;62.33;102202.16;7363690;19;20018;-61
2023/10/15 07:48:02;;;;;;;0.00;0.00;;;;;;;4.83;62.61;102216.91;7361847;19;20965;-61
2023/10/15 07:50:29;;;;;;;0.00;0.00;;;;;;;4.85;62.97;102213.50;7360598;19;20011;-61
2023/10/15 07:52:55;;;;;;;0.00;0.00;;;;;;;4.84;63.09;102218.66;7364155;19;20015;-61
2023/10/15 07:55:23;;;;;;;0.00;0.00;;;;;;;4.85;63.19;102216.09;7366082;19;20021;-61
2023/10/15 07:57:48;;;;;;;;;;;;;;;4.92;61.54;102217.13;7365702;19;20018;-61
2023/10/15 08:00:22;;;;;;;0.10;0.10;;;;;;;4.79;62.69;102200.41;7364757;19;20241;-61
2023/10/15 08:02:49;;;;;;;0.10;0.10;;;;;;;4.96;62.81;102224.13;7362053;19;20014;-60
2023/10/15 08:05:15;;;;;;;0.00;0.00;;;;;;;5.01;62.95;102224.22;7362870;19;20421;-61
2023/10/15 08:07:41;;;;;;;0.00;0.00;;;;;;;5.09;62.77;102220.13;7362980;19;20606;-61
2023/10/15 08:10:08;;;;;;;0.00;0.00;;;;;;;5.11;63.03;102201.19;7360662;19;20614;-61
2023/10/15 08:12:34;;;;;;;0.03;0.03;;;;;;;5.39;63.07;102219.97;7362997;19;20509;-62
2023/10/15 08:14:59;;;;;;;0.00;0.00;;;;;;;5.60;63.13;102224.75;7357486;19;20011;-61
2023/10/15 08:17:26;;;;;;;0.00;0.00;;;;;;;5.77;62.94;102212.16;7363950;19;20021;-62
2023/10/15 08:19:53;;;;;;;0.00;0.00;;;;;;;6.00;62.52;102213.56;7360831;19;20014;-60
2023/10/15 08:22:18;;;;;;;0.10;0.10;;;;;;;6.18;62.65;102210.44;7362141;19;20017;-61
2023/10/15 08:24:44;;;;;;;0.00;0.00;;;;;;;6.35;62.37;102214.25;7360276;19;20014;-61
2023/10/15 08:27:10;;;;;;;0.00;0.00;;;;;;;6.56;62.49;102223.28;7359086;19;20014;-61
2023/10/15 08:29:37;;;;;;;0.08;0.08;;;;;;;6.76;62.28;102222.78;7359925;19;20011;-61
2023/10/15 08:32:03;;;;;;;0.00;0.00;;;;;;;7.01;62.49;102234.47;7367222;19;20062;-61
2023/10/15 08:34:28;;;;;;;0.05;0.05;;;;;;;7.23;62.20;102234.78;7370639;19;20041;-61
2023/10/15 08:36:54;;;;;;;0.00;0.00;;;;;;;7.47;62.07;102240.38;7361490;19;20018;-61
2023/10/15 08:39:23;;;;;;;0.00;0.00;;;;;;;7.71;61.68;102238.97;7363041;19;20006;-62
2023/10/15 08:41:51;;;;;;;0.00;0.00;;;;;;;7.97;61.63;102244.53;7356249;19;20018;-61
2023/10/15 08:44:18;;;;;;;0.00;0.00;;;;;;;8.20;62.32;102252.59;7359705;19;20413;-61
2023/10/15 08:46:47;;;;;;;0.00;0.00;;;;;;;8.40;61.54;102245.94;7353516;19;20109;-61
2023/10/15 08:49:15;;;;;;;0.10;0.10;;;;;;;8.67;61.42;102254.88;7364377;19;20002;-62
2023/10/15 08:51:42;;;;;;;0.05;0.05;;;;;;;8.77;60.83;102233.31;7356587;19;20070;-59
2023/10/15 08:54:11;;;;;;;0.00;0.00;;;;;;;9.11;61.02;102244.88;7363074;19;20019;-59
2023/10/15 08:56:37;;;;;;;0.00;0.00;;;;;;;9.19;60.51;102221.50;7360236;19;20470;-58
2023/10/15 08:59:04;;;;;;;0.00;0.00;;;;;;;9.39;60.42;102227.72;7361669;19;20015;-60
2023/10/15 09:01:34;;;;;;;0.10;0.10;;;;;;;9.76;60.14;102247.06;7359649;19;20011;-59
2023/10/15 09:03:59;;;;;;;0.00;0.00;;;;;;;9.99;60.13;102238.47;7362125;19;20473;-60
2023/10/15 09:06:26;;;;;;;0.05;0.05;;;;;;;10.22;59.74;102241.16;7344311;19;20032;-59
2023/10/15 09:08:52;;;;;;;0.03;0.03;;;;;;;10.43;59.25;102243.00;7363648;19;20361;-59
2023/10/15 09:11:19;;;;;;;0.00;0.00;;;;;;;10.66;59.15;102254.38;7360865;19;20011;-59
2023/10/15 09:13:52;;;;;;;0.00;0.00;;;;;;;11.01;60.22;102253.56;7355805;19;20471;-59
2023/10/15 09:16:20;;;;;;;0.10;0.10;;;;;;;11.22;59.24;102255.28;7361658;19;20023;-59
2023/10/15 09:18:45;;;;;;;0.10;0.10;;;;;;;11.40;58.92;102242.19;7369571;19;20385;-59
2023/10/15 09:21:23;;;;;;;0.00;0.00;;;;;;;11.61;58.01;102239.53;7360217;19;20015;-59
2023/10/15 09:23:50;;;;;;;0.10;0.10;;;;;;;11.93;58.13;102251.69;7365077;19;20017;-59
2023/10/15 09:26:16;;;;;;;0.00;0.00;;;;;;;12.17;57.82;102248.97;7364582;19;20110;-59
2023/10/15 09:28:42;;;;;;;0.10;0.10;;;;;;;12.41;57.82;102234.00;7371507;19;20651;-59
2023/10/15 09:31:09;;;;;;;0.10;0.10;;;;;;;12.66;57.51;102237.34;7375614;19;20006;-59
2023/10/15 09:33:36;;;;;;;0.10;0.10;;;;;;;12.90;57.17;102233.69;7374701;19;20018;-59
2023/10/15 09:36:04;;;;;;;0.00;0.00;;;;;;;13.01;57.12;102210.84;7368747;19;20017;-59
2023/10/15 09:38:34;;;;;;;0.05;0.05;;;;;;;13.49;57.02;102234.94;7363764;19;20794;-60
2023/10/15 09:41:01;;;;;;;0.10;0.10;;;;;;;13.68;56.16;102233.81;7356155;19;20455;-60
2023/10/15 09:43:28;;;;;;;0.10;0.10;;;;;;;13.84;55.65;102213.53;7360313;19;20021;-60
2023/10/15 09:45:54;;;;;;;0.10;0.10;;;;;;;14.00;55.85;102201.09;7352999;19;20122;-60
2023/10/15 09:48:25;;;;;;;0.10;0.10;;;;;;;14.53;55.63;102238.91;7359141;19;20193;-60
2023/10/15 09:50:53;;;;;;;0.10;0.10;;;;;;;14.74;54.92;102238.59;7361541;19;20010;-59
2023/10/15 09:53:21;;;;;;;0.17;0.17;;;;;;;15.01;54.88;102237.28;7356530;19;20467;-60
2023/10/15 09:55:48;;;;;;;0.10;0.10;;;;;;;15.29;54.58;102237.66;7368155;19;20108;-59
2023/10/15 09:58:15;;;;;;;0.10;0.10;;;;;;;15.47;54.22;102233.00;7363838;19;20706;-59
2023/10/15 10:03:38;;;;;;;0.10;0.10;;;;;;;16.37;55.50;102235.56;7331653;19;19939;-59
2023/10/15 10:06:24;;;;;;;0.10;0.10;;;;;;;16.60;54.69;102243.81;7355896;19;20084;-59
2023/10/15 10:09:11;;;;;;;0.10;0.10;;;;;;;16.92;55.04;102250.13;7355942;19;20014;-59
2023/10/15 10:11:51;;;;;;;0.10;0.10;;;;;;;17.15;53.68;102239.88;7358850;19;20011;-59
2023/10/15 10:14:41;;;;;;;0.10;0.10;;;;;;;17.38;53.92;102239.25;7360771;19;20484;-59
2023/10/15 10:17:07;;;;;;;0.10;0.10;;;;;;;17.54;52.48;102245.91;7365619;19;20006;-59
2023/10/15 10:19:32;;;;;;;0.10;0.10;;;;;;;17.77;51.56;102242.63;7368589;19;20550;-59
2023/10/15 10:21:58;;;;;;;0.10;0.10;;;;;;;18.00;51.92;102249.06;7360296;19;20011;-59
2023/10/15 10:24:24;;;;;;;0.10;0.10;;;;;;;18.22;51.13;102242.22;7364759;19;20608;-59
2023/10/15 10:26:56;;;;;;;0.10;0.10;;;;;;;18.58;51.62;102252.56;7362174;19;20343;-59
2023/10/15 10:29:26;;;;;;;0.10;0.10;;;;;;;18.78;51.41;102236.97;7360159;19;20018;-59
2023/10/15 10:31:54;;;;;;;0.00;0.00;;;;;;;19.12;51.15;102239.38;7363852;19;20028;-60
2023/10/15 10:34:30;;;;;;;0.10;0.10;;;;;;;19.43;52.24;102235.66;7350653;19;20018;-59
2023/10/15 10:36:55;;;;;;;0.10;0.10;;;;;;;19.53;49.58;102228.25;7361322;19;20007;-59
2023/10/15 10:39:22;;;;;;;0.00;0.00;;;;;;;19.74;49.53;102237.22;7358698;19;20031;-59
2023/10/15 10:41:59;;;;;;;0.10;0.10;;;;;;;20.07;50.44;102235.09;7357264;19;20002;-59
2023/10/15 10:44:24;;;;;;;0.10;0.10;;;;;;;20.19;49.06;102224.91;7364552;19;20033;-59
2023/10/15 10:46:53;;;;;;;0.08;0.08;;;;;;;20.38;48.84;102225.06;7359110;19;20999;-59
2023/10/15 10:49:29;;;;;;;0.10;0.10;;;;;;;20.82;50.51;102230.38;7355696;19;20035;-59
2023/10/15 10:52:15;;;;;;;0.10;0.10;;;;;;;21.13;50.35;102226.44;7361216;19;20010;-59
2023/10/15 10:54:41;;;;;;;0.20;0.20;;;;;;;21.25;47.96;102223.25;7360351;19;20027;-59
2023/10/15 10:57:07;;;;;;;0.10;0.10;;;;;;;21.47;47.95;102218.75;7361826;19;20002;-60
2023/10/15 10:59:34;;;;;;;0.00;0.00;;;;;;;21.66;47.93;102212.63;7365598;19;20668;-60
2023/10/15 11:02:00;;;;;;;;;;;;;;;22.27;51.02;102231.09;7356402;19;19998;-60
2023/10/15 11:04:26;;;;;;;0.10;0.10;;;;;;;22.25;46.92;102228.53;7362390;19;20355;-59
2023/10/15 11:06:51;;;;;;;0.10;0.10;;;;;;;22.45;46.35;102221.34;7366425;19;20003;-59
2023/10/15 11:09:20;;;;;;;0.13;0.13;;;;;;;22.64;46.98;102230.19;7356415;19;20017;-60
2023/10/15 11:11:48;;;;;;;0.10;0.10;;;;;;;22.85;46.07;102232.72;7354593;19;20044;-59
2023/10/15 11:14:14;;;;;;;0.10;0.10;;;;;;;23.05;45.80;102230.81;7356771;19;20359;-59
2023/10/15 11:16:41;;;;;;;0.10;0.10;;;;;;;23.26;45.50;102228.84;7363622;19;20010;-59
2023/10/15 11:19:17;;;;;;;0.10;0.10;;;;;;;23.58;46.88;102212.13;7357413;19;20436;-60
2023/10/15 11:21:43;;;;;;;0.10;0.10;;;;;;;23.71;44.90;102223.84;7361540;19;20015;-59
2023/10/15 11:24:10;;;;;;;0.10;0.10;;;;;;;23.89;43.91;102222.03;7356800;19;20003;-59
2023/10/15 11:26:42;;;;;;;0.10;0.10;;;;;;;24.18;45.47;102217.72;7356099;19;20038;-59
2023/10/15 11:29:14;;;;;;;0.10;0.10;;;;;;;24.39;45.07;102226.38;7360649;19;20029;-59
2023/10/15 11:31:44;;;;;;;0.10;0.10;;;;;;;24.56;43.71;102218.25;7356514;19;20563;-59
2023/10/15 11:34:14;;;;;;;0.10;0.10;;;;;;;24.79;44.42;102216.94;7354941;19;20085;-60
2023/10/15 11:36:43;;;;;;;0.00;0.00;;;;;;;24.91;43.79;102218.88;7360501;19;20472;-59
2023/10/15 11:39:17;;;;;;;0.10;0.10;;;;;;;25.28;43.79;102222.06;7358106;19;20830;-60
2023/10/15 11:41:49;;;;;;;0.10;0.10;;;;;;;25.36;42.10;102209.94;7359846;19;20387;-59
2023/10/15 11:44:15;;;;;;;0.10;0.10;;;;;;;25.64;41.93;102202.88;7356061;19;20018;-59
2023/10/15 11:46:40;;;;;;;0.10;0.10;;;;;;;25.88;41.77;102206.72;7359076;19;20515;-60
2023/10/15 11:49:09;;;;;;;0.10;0.10;;;;;;;26.16;42.04;102201.44;7361184;19;20014;-60
2023/10/15 11:51:35;;;;;;;0.10;0.10;;;;;;;26.30;41.61;102196.88;7362006;19;20014;-60
2023/10/15 11:54:01;;;;;;;0.10;0.10;;;;;;;26.63;40.15;102214.41;7354633;19;20019;-59
2023/10/15 11:56:29;;;;;;;0.10;0.10;;;;;;;26.75;40.27;102185.94;7359980;19;20010;-59
2023/10/15 11:58:54;;;;;;;0.00;0.00;;;;;;;27.10;38.42;102202.31;7356266;19;20906;-60
2023/10/15 12:01:29;;;;;;;0.10;0.10;;;;;;;27.35;37.70;102205.03;7392743;19;20689;-59